createdAt,value
2022-10-28T00:00:46.573Z,100189.50
2022-10-28T00:01:48.283Z,100190.25
2022-10-28T00:02:50.114Z,100191.72
2022-10-28T00:03:54.675Z,100191.63
2022-10-28T00:04:56.321Z,100188.09
2022-10-28T00:06:05.848Z,100195.41
2022-10-28T00:07:07.515Z,100189.75
2022-10-28T00:08:09.533Z,100187.34
2022-10-28T00:09:12.280Z,100190.75
2022-10-28T00:10:14.195Z,100190.16
2022-10-28T00:11:19.453Z,100187.69
2022-10-28T00:12:21.116Z,100193.44
2022-10-28T00:13:22.770Z,100187.34
2022-10-28T00:14:24.415Z,100193.00
2022-10-28T00:15:26.202Z,100187.16
2022-10-28T00:16:30.999Z,100191.25
2022-10-28T00:17:32.751Z,100197.19
2022-10-28T00:18:34.431Z,100188.44
2022-10-28T00:19:36.092Z,100190.81
2022-10-28T00:20:37.780Z,100192.63
2022-10-28T00:21:41.777Z,100190.63
2022-10-28T00:22:43.764Z,100199.94
2022-10-28T00:23:45.847Z,100195.91
2022-10-28T00:24:47.492Z,100191.06
2022-10-28T00:25:49.138Z,100194.28
2022-10-28T00:26:50.849Z,100191.75
2022-10-28T00:27:53.062Z,100196.69
2022-10-28T00:29:00.429Z,100194.22
2022-10-28T00:30:02.287Z,100190.63
2022-10-28T00:31:08.551Z,100197.06
2022-10-28T00:32:10.202Z,100186.28
2022-10-28T00:33:11.899Z,100198.56
2022-10-28T00:34:16.090Z,100196.56
2022-10-28T00:35:17.749Z,100191.25
2022-10-28T00:36:22.502Z,100196.75
2022-10-28T00:37:24.412Z,100196.84
2022-10-28T00:38:26.046Z,100197.06
2022-10-28T00:39:28.132Z,100192.22
2022-10-28T00:40:34.763Z,100197.97
2022-10-28T00:41:39.243Z,100195.06
2022-10-28T00:42:40.919Z,100197.47
2022-10-28T00:43:46.800Z,100196.47
2022-10-28T00:45:09.252Z,100188.28
2022-10-28T00:46:42.705Z,100191.28
2022-10-28T00:48:02.300Z,100181.72
2022-10-28T00:49:11.005Z,100190.34
2022-10-28T00:50:24.559Z,100196.09
2022-10-28T00:51:27.852Z,100187.53
2022-10-28T00:52:31.812Z,100188.41
2022-10-28T00:53:33.858Z,100190.91
2022-10-28T00:54:37.952Z,100192.75
2022-10-28T00:55:40.278Z,100180.38
2022-10-28T00:56:47.018Z,100190.44
2022-10-28T00:57:49.918Z,100184.78
2022-10-28T00:58:55.343Z,100188.78
2022-10-28T00:59:58.565Z,100187.59
2022-10-28T01:01:00.684Z,100193.78
2022-10-28T01:02:02.824Z,100195.06
2022-10-28T01:03:04.707Z,100193.03
2022-10-28T01:04:07.535Z,100181.16
2022-10-28T01:05:11.058Z,100181.16
2022-10-28T01:06:14.385Z,100183.06
2022-10-28T01:07:17.187Z,100186.13
2022-10-28T01:08:18.985Z,100180.81
2022-10-28T01:09:20.721Z,100175.09
2022-10-28T01:10:29.003Z,100189.56
2022-10-28T01:12:01.610Z,100185.84
2022-10-28T01:13:11.602Z,100181.47
2022-10-28T01:14:27.677Z,100180.47
2022-10-28T01:15:42.609Z,100177.75
2022-10-28T01:16:59.637Z,100183.28
2022-10-28T01:18:16.452Z,100181.31
2022-10-28T01:19:47.108Z,100182.03
2022-10-28T01:21:16.995Z,100181.66
2022-10-28T01:22:27.281Z,100181.66
2022-10-28T01:23:56.280Z,100182.28
2022-10-28T01:25:03.763Z,100182.13
2022-10-28T01:26:52.993Z,100181.94
2022-10-28T01:28:09.143Z,100183.78
2022-10-28T01:29:35.275Z,100183.97
2022-10-28T01:30:54.537Z,100189.63
2022-10-28T01:32:04.130Z,100179.38
2022-10-28T01:33:31.012Z,100186.13
2022-10-28T01:34:43.998Z,100177.75
2022-10-28T01:35:53.003Z,100186.63
2022-10-28T01:37:00.661Z,100178.81
2022-10-28T01:38:09.934Z,100189.44
2022-10-28T01:39:23.769Z,100179.00
2022-10-28T01:40:25.354Z,100186.97
2022-10-28T01:41:51.905Z,100189.16
2022-10-28T01:43:06.544Z,100183.03
2022-10-28T01:44:26.537Z,100182.22
2022-10-28T01:45:31.160Z,100187.16
2022-10-28T01:46:47.621Z,100181.84
2022-10-28T01:47:55.555Z,100185.13
2022-10-28T01:49:02.969Z,100187.97
2022-10-28T01:50:29.732Z,100186.09
2022-10-28T01:52:02.030Z,100193.22
2022-10-28T01:53:14.626Z,100192.41
2022-10-28T01:54:20.914Z,100202.38
2022-10-28T01:55:37.651Z,100189.88
2022-10-28T01:56:42.725Z,100190.94
2022-10-28T01:57:46.495Z,100204.41
2022-10-28T01:58:50.154Z,100200.28
2022-10-28T01:59:52.980Z,100190.88
2022-10-28T02:00:56.061Z,100197.63
2022-10-28T02:01:58.000Z,100185.09
2022-10-28T02:03:00.064Z,100206.97
2022-10-28T02:04:02.951Z,100199.25
2022-10-28T02:05:44.542Z,100199.97
2022-10-28T02:06:50.439Z,100212.88
2022-10-28T02:07:59.200Z,100211.59
2022-10-28T02:09:27.913Z,100205.66
2022-10-28T02:10:37.618Z,100210.72
2022-10-28T02:12:09.002Z,100215.19
2022-10-28T02:13:13.952Z,100219.03
2022-10-28T02:14:45.942Z,100220.22
2022-10-28T02:15:58.590Z,100205.47
2022-10-28T02:17:18.555Z,100217.91
2022-10-28T02:18:40.325Z,100215.16
2022-10-28T02:20:25.076Z,100218.22
2022-10-28T02:21:45.244Z,100220.03
2022-10-28T02:22:54.121Z,100222.03
2022-10-28T02:24:10.934Z,100209.72
2022-10-28T02:25:25.984Z,100214.81
2022-10-28T02:26:52.739Z,100221.94
2022-10-28T02:28:07.895Z,100208.53
2022-10-28T02:29:12.560Z,100218.47
2022-10-28T02:30:21.277Z,100223.34
2022-10-28T02:31:30.360Z,100221.06
2022-10-28T02:32:46.424Z,100209.13
2022-10-28T02:33:53.331Z,100220.78
2022-10-28T02:34:59.036Z,100227.09
2022-10-28T02:36:06.047Z,100213.25
2022-10-28T02:37:15.965Z,100224.00
2022-10-28T02:38:24.319Z,100228.22
2022-10-28T02:39:32.647Z,100228.56
2022-10-28T02:40:37.614Z,100220.81
2022-10-28T02:41:50.730Z,100212.69
2022-10-28T02:43:03.575Z,100224.09
2022-10-28T02:44:10.594Z,100225.75
2022-10-28T02:45:19.179Z,100226.50
2022-10-28T02:46:24.692Z,100224.50
2022-10-28T02:47:31.986Z,100218.72
2022-10-28T02:48:57.192Z,100225.50
2022-10-28T02:50:04.017Z,100228.31
2022-10-28T02:51:16.938Z,100225.03
2022-10-28T02:52:22.048Z,100219.56
2022-10-28T02:53:33.514Z,100224.03
2022-10-28T02:54:42.972Z,100215.81
2022-10-28T02:55:49.487Z,100220.75
2022-10-28T02:57:03.357Z,100228.03
2022-10-28T02:58:06.125Z,100211.25
2022-10-28T02:59:12.779Z,100223.69
2022-10-28T03:00:19.334Z,100224.09
2022-10-28T03:01:21.131Z,100223.31
2022-10-28T03:02:23.584Z,100220.66
2022-10-28T03:03:25.413Z,100229.41
2022-10-28T03:04:27.146Z,100229.41
2022-10-28T03:05:28.836Z,100227.97
2022-10-28T03:06:30.619Z,100224.22
2022-10-28T03:07:32.385Z,100219.75
2022-10-28T03:08:34.116Z,100228.97
2022-10-28T03:09:35.782Z,100223.84
2022-10-28T03:10:37.464Z,100223.03
2022-10-28T03:11:39.234Z,100232.88
2022-10-28T03:12:40.892Z,100226.31
2022-10-28T03:13:42.624Z,100231.69
2022-10-28T03:14:44.365Z,100238.91
2022-10-28T03:15:47.557Z,100237.72
2022-10-28T03:16:49.287Z,100230.44
2022-10-28T03:17:51.250Z,100239.81
2022-10-28T03:18:53.745Z,100237.56
2022-10-28T03:19:55.409Z,100235.72
2022-10-28T03:20:59.010Z,100239.00
2022-10-28T03:22:00.927Z,100240.63
2022-10-28T03:23:02.650Z,100242.22
2022-10-28T03:24:04.566Z,100237.72
2022-10-28T03:25:06.438Z,100231.63
2022-10-28T03:26:08.105Z,100238.56
2022-10-28T03:27:09.784Z,100235.28
2022-10-28T03:28:11.457Z,100233.63
2022-10-28T03:29:13.187Z,100232.16
2022-10-28T03:30:15.005Z,100220.03
2022-10-28T03:31:17.422Z,100226.78
2022-10-28T03:32:19.149Z,100236.38
2022-10-28T03:33:20.857Z,100231.91
2022-10-28T03:34:22.495Z,100236.56
2022-10-28T03:35:24.537Z,100236.38
2022-10-28T03:36:26.205Z,100235.09
2022-10-28T03:37:27.861Z,100241.66
2022-10-28T03:38:29.631Z,100235.09
2022-10-28T03:39:31.318Z,100237.44
2022-10-28T03:40:34.333Z,100237.03
2022-10-28T03:41:36.114Z,100233.56
2022-10-28T03:42:40.403Z,100243.44
2022-10-28T03:43:43.153Z,100227.84
2022-10-28T03:44:44.791Z,100234.53
2022-10-28T03:45:47.837Z,100242.91
2022-10-28T03:46:49.506Z,100242.72
2022-10-28T03:47:51.445Z,100231.03
2022-10-28T03:48:53.504Z,100238.44
2022-10-28T03:49:55.436Z,100244.03
2022-10-28T03:50:57.089Z,100240.38
2022-10-28T03:51:58.744Z,100237.91
2022-10-28T03:53:00.678Z,100240.38
2022-10-28T03:54:02.394Z,100241.19
2022-10-28T03:55:04.420Z,100241.56
2022-10-28T03:56:06.285Z,100246.13
2022-10-28T03:57:07.953Z,100248.97
2022-10-28T03:58:09.625Z,100246.50
2022-10-28T03:59:13.162Z,100243.19
2022-10-28T04:00:16.845Z,100245.03
2022-10-28T04:01:18.634Z,100252.97
2022-10-28T04:02:20.453Z,100249.31
2022-10-28T04:03:23.582Z,100243.19
2022-10-28T04:04:28.438Z,100237.19
2022-10-28T04:05:32.475Z,100242.69
2022-10-28T04:06:34.139Z,100231.28
2022-10-28T04:07:35.886Z,100232.41
2022-10-28T04:08:37.734Z,100233.22
2022-10-28T04:09:39.413Z,100247.09
2022-10-28T04:10:46.245Z,100236.50
2022-10-28T04:11:49.534Z,100240.97
2022-10-28T04:12:51.317Z,100235.69
2022-10-28T04:13:53.090Z,100239.16
2022-10-28T04:14:54.851Z,100233.22
2022-10-28T04:15:56.773Z,100238.88
2022-10-28T04:16:58.657Z,100248.28
2022-10-28T04:18:00.444Z,100242.16
2022-10-28T04:19:02.458Z,100238.22
2022-10-28T04:20:04.562Z,100239.31
2022-10-28T04:21:06.346Z,100230.91
2022-10-28T04:22:09.248Z,100238.13
2022-10-28T04:23:15.574Z,100234.56
2022-10-28T04:24:17.280Z,100233.75
2022-10-28T04:25:18.936Z,100241.97
2022-10-28T04:26:20.655Z,100236.66
2022-10-28T04:27:22.307Z,100242.44
2022-10-28T04:28:26.728Z,100248.38
2022-10-28T04:29:28.429Z,100241.78
2022-10-28T04:30:30.098Z,100241.59
2022-10-28T04:31:31.774Z,100242.91
2022-10-28T04:32:33.499Z,100240.59
2022-10-28T04:33:35.177Z,100232.19
2022-10-28T04:34:36.817Z,100248.19
2022-10-28T04:35:39.402Z,100244.06
2022-10-28T04:36:41.094Z,100240.13
2022-10-28T04:37:43.000Z,100238.78
2022-10-28T04:38:44.676Z,100244.81
2022-10-28T04:39:46.318Z,100234.66
2022-10-28T04:40:49.305Z,100239.03
2022-10-28T04:41:51.014Z,100247.97
2022-10-28T04:42:53.014Z,100246.16
2022-10-28T04:43:56.419Z,100249.63
2022-10-28T04:44:58.146Z,100245.34
2022-10-28T04:46:05.932Z,100247.16
2022-10-28T04:47:07.907Z,100226.81
2022-10-28T04:48:10.730Z,100238.97
2022-10-28T04:49:12.442Z,100231.28
2022-10-28T04:50:14.351Z,100244.78
2022-10-28T04:51:16.010Z,100244.03
2022-10-28T04:52:17.706Z,100241.09
2022-10-28T04:53:19.405Z,100233.91
2022-10-28T04:54:21.050Z,100242.00
2022-10-28T04:55:22.718Z,100245.47
2022-10-28T04:56:24.414Z,100242.84
2022-10-28T04:57:26.158Z,100237.53
2022-10-28T04:58:27.834Z,100232.69
2022-10-28T04:59:29.488Z,100242.31
2022-10-28T05:00:31.697Z,100230.16
2022-10-28T05:01:33.563Z,100233.88
2022-10-28T05:02:35.314Z,100244.16
2022-10-28T05:03:37.249Z,100212.75
2022-10-28T05:04:38.941Z,100241.50
2022-10-28T05:05:40.996Z,100247.91
2022-10-28T05:06:42.734Z,100245.94
2022-10-28T05:07:44.652Z,100248.03
2022-10-28T05:08:46.354Z,100249.66
2022-10-28T05:09:48.048Z,100249.50
2022-10-28T05:10:51.222Z,100245.03
2022-10-28T05:11:52.897Z,100244.69
2022-10-28T05:12:54.556Z,100248.97
2022-10-28T05:13:56.331Z,100261.81
2022-10-28T05:14:57.992Z,100249.41
2022-10-28T05:15:59.694Z,100255.66
2022-10-28T05:17:01.445Z,100249.91
2022-10-28T05:18:03.177Z,100251.88
2022-10-28T05:19:04.948Z,100267.47
2022-10-28T05:20:07.714Z,100260.25
2022-10-28T05:21:09.415Z,100258.66
2022-10-28T05:22:11.163Z,100267.91
2022-10-28T05:23:13.251Z,100262.00
2022-10-28T05:24:14.945Z,100259.91
2022-10-28T05:25:17.367Z,100269.59
2022-10-28T05:26:19.388Z,100268.59
2022-10-28T05:27:21.179Z,100271.22
2022-10-28T05:28:22.890Z,100270.91
2022-10-28T05:29:24.576Z,100270.00
2022-10-28T05:30:27.257Z,100269.84
2022-10-28T05:31:28.904Z,100274.78
2022-10-28T05:32:30.585Z,100280.03
2022-10-28T05:33:33.740Z,100278.81
2022-10-28T05:34:36.295Z,100279.41
2022-10-28T05:35:38.947Z,100272.94
2022-10-28T05:36:40.588Z,100282.44
2022-10-28T05:37:43.606Z,100282.09
2022-10-28T05:38:45.629Z,100289.22
2022-10-28T05:39:47.447Z,100286.22
2022-10-28T05:40:49.225Z,100285.31
2022-10-28T05:41:50.863Z,100283.59
2022-10-28T05:42:52.824Z,100278.78
2022-10-28T05:43:54.770Z,100290.09
2022-10-28T05:44:56.418Z,100285.56
2022-10-28T05:45:58.418Z,100290.13
2022-10-28T05:47:00.130Z,100296.22
2022-10-28T05:48:02.392Z,100303.59
2022-10-28T05:49:04.371Z,100299.59
2022-10-28T05:50:06.400Z,100291.66
2022-10-28T05:51:08.064Z,100299.50
2022-10-28T05:52:09.768Z,100299.63
2022-10-28T05:53:11.486Z,100293.31
2022-10-28T05:54:13.333Z,100295.06
2022-10-28T05:55:15.296Z,100303.09
2022-10-28T05:56:20.076Z,100296.88
2022-10-28T05:57:21.747Z,100300.25
2022-10-28T05:58:23.438Z,100300.53
2022-10-28T05:59:25.105Z,100290.75
2022-10-28T06:00:27.390Z,100292.94
2022-10-28T06:01:29.339Z,100295.84
2022-10-28T06:02:31.050Z,100292.44
2022-10-28T06:03:32.814Z,100295.56
2022-10-28T06:04:34.570Z,100297.44
2022-10-28T06:05:41.965Z,100299.75
2022-10-28T06:06:43.672Z,100302.66
2022-10-28T06:07:45.349Z,100304.56
2022-10-28T06:08:47.053Z,100305.88
2022-10-28T06:09:50.829Z,100302.88
2022-10-28T06:10:55.686Z,100310.09
2022-10-28T06:11:57.340Z,100303.81
2022-10-28T06:12:59.041Z,100291.56
2022-10-28T06:14:00.939Z,100304.34
2022-10-28T06:15:03.418Z,100303.63
2022-10-28T06:16:05.316Z,100301.41
2022-10-28T06:17:07.021Z,100305.13
2022-10-28T06:18:08.729Z,100302.53
2022-10-28T06:19:10.385Z,100311.38
2022-10-28T06:20:12.055Z,100303.41
2022-10-28T06:21:13.763Z,100305.91
2022-10-28T06:22:15.448Z,100306.53
2022-10-28T06:23:17.171Z,100309.09
2022-10-28T06:24:18.841Z,100306.03
2022-10-28T06:25:21.926Z,100312.03
2022-10-28T06:26:23.574Z,100306.53
2022-10-28T06:27:25.247Z,100304.88
2022-10-28T06:28:27.310Z,100307.75
2022-10-28T06:29:30.739Z,100298.16
2022-10-28T06:30:32.388Z,100310.50
2022-10-28T06:31:34.135Z,100300.53
2022-10-28T06:32:35.820Z,100310.97
2022-10-28T06:33:38.010Z,100299.34
2022-10-28T06:34:39.713Z,100277.25
2022-10-28T06:35:41.792Z,100306.00
2022-10-28T06:36:43.445Z,100304.28
2022-10-28T06:37:45.348Z,100312.72
2022-10-28T06:38:47.047Z,100300.31
2022-10-28T06:39:52.206Z,100307.97
2022-10-28T06:40:57.557Z,100309.44
2022-10-28T06:41:59.259Z,100294.72
2022-10-28T06:43:03.349Z,100299.84
2022-10-28T06:44:05.200Z,100301.38
2022-10-28T06:45:07.247Z,100307.84
2022-10-28T06:46:08.905Z,100303.53
2022-10-28T06:47:12.379Z,100299.63
2022-10-28T06:48:14.442Z,100296.88
2022-10-28T06:49:16.740Z,100295.09
2022-10-28T06:50:18.788Z,100296.81
2022-10-28T06:51:20.831Z,100297.22
2022-10-28T06:52:22.506Z,100302.00
2022-10-28T06:53:25.424Z,100304.31
2022-10-28T06:54:27.343Z,100310.44
2022-10-28T06:55:29.207Z,100304.63
2022-10-28T06:56:30.898Z,100300.75
2022-10-28T06:57:32.551Z,100303.69
2022-10-28T06:58:34.211Z,100310.66
2022-10-28T06:59:36.092Z,100306.91
2022-10-28T07:00:37.774Z,100299.03
2022-10-28T07:01:39.578Z,100304.34
2022-10-28T07:02:44.266Z,100299.94
2022-10-28T07:03:47.782Z,100298.16
2022-10-28T07:04:49.436Z,100299.31
2022-10-28T07:05:51.842Z,100291.97
2022-10-28T07:06:57.663Z,100300.44
2022-10-28T07:07:59.400Z,100296.63
2022-10-28T07:09:01.099Z,100300.56
2022-10-28T07:10:06.152Z,100288.25
2022-10-28T07:11:08.077Z,100292.50
2022-10-28T07:12:09.782Z,100299.88
2022-10-28T07:13:11.566Z,100302.06
2022-10-28T07:14:13.216Z,100300.50
2022-10-28T07:15:14.864Z,100302.69
2022-10-28T07:16:16.507Z,100294.56
2022-10-28T07:17:18.207Z,100297.00
2022-10-28T07:18:20.431Z,100298.31
2022-10-28T07:19:22.788Z,100301.00
2022-10-28T07:20:26.323Z,100294.72
2022-10-28T07:21:29.871Z,100294.63
2022-10-28T07:22:31.544Z,100304.56
2022-10-28T07:23:34.348Z,100291.75
2022-10-28T07:24:36.036Z,100293.50
2022-10-28T07:25:37.733Z,100300.47
2022-10-28T07:26:39.432Z,100296.31
2022-10-28T07:27:41.111Z,100298.09
2022-10-28T07:28:43.246Z,100300.66
2022-10-28T07:29:44.926Z,100294.50
2022-10-28T07:30:46.693Z,100298.16
2022-10-28T07:31:48.330Z,100288.78
2022-10-28T07:32:50.039Z,100300.56
2022-10-28T07:33:53.360Z,100304.78
2022-10-28T07:34:55.001Z,100300.00
2022-10-28T07:35:56.751Z,100290.91
2022-10-28T07:36:58.507Z,100292.34
2022-10-28T07:38:00.299Z,100303.06
2022-10-28T07:39:04.542Z,100302.16
2022-10-28T07:40:07.340Z,100303.94
2022-10-28T07:41:10.156Z,100297.50
2022-10-28T07:42:11.842Z,100304.31
2022-10-28T07:43:13.784Z,100308.97
2022-10-28T07:44:15.562Z,100301.94
2022-10-28T07:45:18.203Z,100304.28
2022-10-28T07:46:20.192Z,100309.03
2022-10-28T07:47:22.340Z,100301.16
2022-10-28T07:48:24.545Z,100309.03
2022-10-28T07:49:26.307Z,100298.75
2022-10-28T07:50:28.052Z,100304.09
2022-10-28T07:51:29.918Z,100294.50
2022-10-28T07:52:31.796Z,100301.03
2022-10-28T07:53:34.419Z,100299.22
2022-10-28T07:54:36.074Z,100296.88
2022-10-28T07:55:37.829Z,100296.75
2022-10-28T07:56:39.509Z,100303.38
2022-10-28T07:57:41.198Z,100304.03
2022-10-28T07:58:44.865Z,100302.38
2022-10-28T07:59:46.933Z,100299.16
2022-10-28T08:00:48.869Z,100296.09
2022-10-28T08:01:50.673Z,100301.75
2022-10-28T08:02:52.380Z,100291.84
2022-10-28T08:03:54.160Z,100284.88
2022-10-28T08:04:56.925Z,100290.59
2022-10-28T08:06:07.685Z,100292.25
2022-10-28T08:07:09.363Z,100293.72
2022-10-28T08:08:11.079Z,100293.81
2022-10-28T08:09:12.779Z,100295.09
2022-10-28T08:10:14.511Z,100295.59
2022-10-28T08:11:22.725Z,100289.81
2022-10-28T08:12:24.564Z,100294.19
2022-10-28T08:13:26.220Z,100296.16
2022-10-28T08:14:27.870Z,100291.50
2022-10-28T08:15:29.951Z,100295.22
2022-10-28T08:16:31.663Z,100290.91
2022-10-28T08:17:33.403Z,100279.78
2022-10-28T08:18:36.399Z,100297.16
2022-10-28T08:19:38.100Z,100295.56
2022-10-28T08:20:39.734Z,100294.91
2022-10-28T08:21:41.400Z,100292.69
2022-10-28T08:22:43.143Z,100288.69
2022-10-28T08:23:47.805Z,100296.09
2022-10-28T08:24:49.473Z,100291.13
2022-10-28T08:25:52.837Z,100287.09
2022-10-28T08:26:54.479Z,100287.78
2022-10-28T08:27:57.655Z,100279.91
2022-10-28T08:29:01.618Z,100281.69
2022-10-28T08:30:03.751Z,100282.78
2022-10-28T08:31:09.566Z,100289.25
2022-10-28T08:32:11.490Z,100280.22
2022-10-28T08:33:14.355Z,100281.50
2022-10-28T08:34:16.219Z,100279.72
2022-10-28T08:35:17.943Z,100286.03
2022-10-28T08:36:19.688Z,100273.59
2022-10-28T08:37:21.457Z,100278.28
2022-10-28T08:38:23.169Z,100269.75
2022-10-28T08:39:24.893Z,100278.75
2022-10-28T08:40:45.769Z,100274.56
2022-10-28T08:41:59.999Z,100260.84
2022-10-28T08:43:14.780Z,100272.41
2022-10-28T08:44:53.628Z,100266.22
2022-10-28T08:46:20.703Z,100271.06
2022-10-28T08:47:25.048Z,100263.50
2022-10-28T08:48:33.665Z,100263.91
2022-10-28T08:49:39.426Z,100262.94
2022-10-28T08:50:52.211Z,100259.47
2022-10-28T08:51:59.588Z,100266.22
2022-10-28T08:53:28.328Z,100258.50
2022-10-28T08:54:37.508Z,100263.97
2022-10-28T08:55:50.238Z,100256.88
2022-10-28T08:56:55.069Z,100261.59
2022-10-28T08:58:22.326Z,100263.50
2022-10-28T08:59:37.860Z,100255.41
2022-10-28T09:00:40.713Z,100254.91
2022-10-28T09:01:51.354Z,100261.19
2022-10-28T09:03:22.510Z,100260.53
2022-10-28T09:04:40.401Z,100259.97
2022-10-28T09:05:48.005Z,100249.47
2022-10-28T09:06:49.727Z,100253.00
2022-10-28T09:07:52.055Z,100253.47
2022-10-28T09:08:54.383Z,100249.59
2022-10-28T09:09:56.314Z,100242.63
2022-10-28T09:11:00.567Z,100247.03
2022-10-28T09:12:17.334Z,100246.78
2022-10-28T09:13:29.987Z,100248.88
2022-10-28T09:14:47.971Z,100242.97
2022-10-28T09:16:09.391Z,100236.81
2022-10-28T09:17:26.312Z,100238.09
2022-10-28T09:18:48.154Z,100241.97
2022-10-28T09:19:49.763Z,100240.66
2022-10-28T09:21:04.977Z,100230.72
2022-10-28T09:22:31.481Z,100238.84
2022-10-28T09:23:37.570Z,100234.00
2022-10-28T09:24:53.069Z,100233.81
2022-10-28T09:26:06.815Z,100237.41
2022-10-28T09:27:23.341Z,100231.84
2022-10-28T09:28:44.720Z,100225.88
2022-10-28T09:30:11.807Z,100224.25
2022-10-28T09:31:28.976Z,100226.59
2022-10-28T09:32:36.416Z,100226.38
2022-10-28T09:33:42.181Z,100222.41
2022-10-28T09:35:06.469Z,100216.69
2022-10-28T09:36:17.201Z,100219.66
2022-10-28T09:37:24.379Z,100217.56
2022-10-28T09:38:26.051Z,100215.53
2022-10-28T09:39:31.624Z,100218.84
2022-10-28T09:40:36.767Z,100204.44
2022-10-28T09:41:41.540Z,100205.00
2022-10-28T09:42:58.049Z,100211.53
2022-10-28T09:44:25.280Z,100207.78
2022-10-28T09:45:31.558Z,100209.75
2022-10-28T09:46:37.019Z,100205.06
2022-10-28T09:47:46.079Z,100206.31
2022-10-28T09:48:59.904Z,100204.25
2022-10-28T09:50:08.506Z,100192.59
2022-10-28T09:51:21.315Z,100203.06
2022-10-28T09:52:28.574Z,100200.00
2022-10-28T09:53:42.202Z,100193.97
2022-10-28T09:54:50.623Z,100193.22
2022-10-28T09:55:52.493Z,100196.88
2022-10-28T09:56:55.071Z,100192.34
2022-10-28T09:57:57.088Z,100190.56
2022-10-28T09:59:03.157Z,100192.91
2022-10-28T10:00:05.719Z,100194.94
2022-10-28T10:01:07.433Z,100186.16
2022-10-28T10:02:27.498Z,100186.44
2022-10-28T10:03:29.475Z,100182.59
2022-10-28T10:04:31.526Z,100187.88
2022-10-28T10:05:38.036Z,100180.47
2022-10-28T10:06:42.909Z,100180.56
2022-10-28T10:07:53.921Z,100189.75
2022-10-28T10:08:57.133Z,100179.19
2022-10-28T10:11:12.088Z,100178.16
2022-10-28T10:12:14.508Z,100180.72
2022-10-28T10:13:21.184Z,100176.16
2022-10-28T10:14:29.108Z,100178.56
2022-10-28T10:15:36.503Z,100171.47
2022-10-28T10:16:43.634Z,100175.91
2022-10-28T10:17:47.290Z,100174.44
2022-10-28T10:18:53.332Z,100173.31
2022-10-28T10:20:00.242Z,100162.66
2022-10-28T10:21:02.841Z,100163.47
2022-10-28T10:22:04.549Z,100167.41
2022-10-28T10:23:32.026Z,100163.53
2022-10-28T10:24:36.203Z,100163.72
2022-10-28T10:25:37.908Z,100168.31
2022-10-28T10:26:39.605Z,100163.53
2022-10-28T10:27:41.338Z,100160.19
2022-10-28T10:28:48.940Z,100167.44
2022-10-28T10:29:53.039Z,100158.84
2022-10-28T10:31:00.079Z,100158.03
2022-10-28T10:32:19.257Z,100156.78
2022-10-28T10:33:51.315Z,100157.69
2022-10-28T10:35:02.040Z,100160.28
2022-10-28T10:36:09.721Z,100152.75
2022-10-28T10:37:21.359Z,100153.44
2022-10-28T10:38:23.121Z,100144.25
2022-10-28T10:39:39.997Z,100154.78
2022-10-28T10:40:49.674Z,100148.44
2022-10-28T10:41:51.348Z,100147.47
2022-10-28T10:43:12.908Z,100150.41
2022-10-28T10:44:21.438Z,100145.78
2022-10-28T10:45:27.696Z,100148.59
2022-10-28T10:46:29.483Z,100146.06
2022-10-28T10:47:31.222Z,100139.50
2022-10-28T10:48:36.628Z,100145.56
2022-10-28T10:49:38.495Z,100124.31
2022-10-28T10:50:45.565Z,100135.09
2022-10-28T10:51:57.184Z,100134.34
2022-10-28T10:53:01.617Z,100127.09
2022-10-28T10:54:03.627Z,100121.63
2022-10-28T10:55:38.202Z,100126.94
2022-10-28T10:56:40.110Z,100128.41
2022-10-28T10:57:46.860Z,100116.63
2022-10-28T10:58:54.415Z,100128.41
2022-10-28T10:59:57.404Z,100120.47
2022-10-28T11:01:02.977Z,100124.47
2022-10-28T11:02:39.876Z,100121.03
2022-10-28T11:03:54.252Z,100123.03
2022-10-28T11:05:00.015Z,100114.34
2022-10-28T11:06:23.452Z,100114.75
2022-10-28T11:07:25.996Z,100113.25
2022-10-28T11:08:36.863Z,100124.59
2022-10-28T11:09:40.273Z,100123.34
2022-10-28T11:10:41.941Z,100089.50
2022-10-28T11:11:44.493Z,100124.66
2022-10-28T11:12:55.612Z,100120.56
2022-10-28T11:14:09.769Z,100116.50
2022-10-28T11:15:17.405Z,100121.69
2022-10-28T11:16:24.936Z,100113.09
2022-10-28T11:18:43.923Z,100112.81
2022-10-28T11:19:45.613Z,100113.91
2022-10-28T11:21:13.281Z,100115.31
2022-10-28T11:22:37.728Z,100114.28
2022-10-28T11:24:03.856Z,100125.38
2022-10-28T11:25:46.010Z,100113.47
2022-10-28T11:27:01.469Z,100111.31
2022-10-28T11:28:33.722Z,100106.72
2022-10-28T11:29:35.440Z,100109.16
2022-10-28T11:30:50.845Z,100112.66
2022-10-28T11:32:13.773Z,100098.88
2022-10-28T11:33:35.070Z,100103.47
2022-10-28T11:35:07.200Z,100094.31
2022-10-28T11:36:25.672Z,100096.69
2022-10-28T11:37:45.448Z,100113.19
2022-10-28T11:39:18.282Z,100096.19
2022-10-28T11:40:25.572Z,100093.47
2022-10-28T11:41:54.874Z,100094.22
2022-10-28T11:43:19.999Z,100098.78
2022-10-28T11:44:27.769Z,100087.69
2022-10-28T11:45:39.125Z,100095.25
2022-10-28T11:47:04.217Z,100088.78
2022-10-28T11:48:22.085Z,100089.06
2022-10-28T11:49:59.236Z,100093.63
2022-10-28T11:51:32.981Z,100083.06
2022-10-28T11:53:06.903Z,100073.88
2022-10-28T11:54:39.717Z,100079.22
2022-10-28T11:55:41.348Z,100084.09
2022-10-28T11:56:48.419Z,100082.22
2022-10-28T11:58:06.351Z,100078.00
2022-10-28T11:59:32.607Z,100071.28
2022-10-28T12:00:40.355Z,100078.06
2022-10-28T12:01:50.651Z,100065.16
2022-10-28T12:03:21.396Z,100074.28
2022-10-28T12:04:31.382Z,100065.09
2022-10-28T12:06:03.189Z,100065.91
2022-10-28T12:07:26.634Z,100068.41
2022-10-28T12:08:59.046Z,100066.09
2022-10-28T12:10:15.654Z,100066.75
2022-10-28T12:11:36.033Z,100061.47
2022-10-28T12:13:05.783Z,100062.16
2022-10-28T12:14:22.401Z,100059.19
2022-10-28T12:15:39.211Z,100061.03
2022-10-28T12:16:45.191Z,100060.78
2022-10-28T12:18:08.074Z,100056.25
2022-10-28T12:19:43.567Z,100057.38
2022-10-28T12:21:09.795Z,100049.38
2022-10-28T12:22:33.870Z,100043.75
2022-10-28T12:23:39.229Z,100045.69
2022-10-28T12:24:44.826Z,100034.66
2022-10-28T12:25:51.722Z,100043.84
2022-10-28T12:27:00.244Z,100048.44
2022-10-28T12:28:07.668Z,100040.59
2022-10-28T12:29:28.482Z,100037.63
2022-10-28T12:30:33.243Z,100042.56
2022-10-28T12:31:44.561Z,100039.69
2022-10-28T12:32:48.627Z,100041.03
2022-10-28T12:33:55.808Z,100039.41
2022-10-28T12:35:19.698Z,100051.59
2022-10-28T12:36:32.109Z,100044.56
2022-10-28T12:37:44.765Z,100039.97
2022-10-28T12:39:00.205Z,100036.75
2022-10-28T12:40:17.184Z,100038.94
2022-10-28T12:41:43.152Z,100033.28
2022-10-28T12:42:58.604Z,100026.47
2022-10-28T12:44:11.172Z,100027.00
2022-10-28T12:45:17.067Z,100034.00
2022-10-28T12:46:37.574Z,100029.47
2022-10-28T12:47:46.512Z,100026.47
2022-10-28T12:48:54.569Z,100025.72